Terminal Aerodrome Forecast
Issued by NWS

Current Version | Previous Version | Text Only | Print | Product List | Glossary On
Versions: 1 2 3 4 5 6 7 8 9 10 11 12 13 14 15 16 17 18 19 20 21 22 23 24 25 26 27 28 29 30 31 32 33 34 35 36 37 38 39 40 41 42 43 44 45 46 47 48 49 50
000
FTAK31 PANC 010837 AAA
TAFASN
TAF AMD
PASN 010837Z 0109/0206 34013KT 6SM -SHSN SCT025 OVC035
     FM012000 35010KT 5SM -SHSN SCT012 OVC020
     FM020300 34007KT 6SM BR VCSH SCT010 OVC018=

USA.gov is the U.S. government's official web portal to all federal, state and local government web resources and services.